sensor_id;sensor_type;location;lat;lon;timestamp;P1;durP1;ratioP1;P2;durP2;ratioP2
3922;SDS011;1976;51.694;6.256;2023-04-19T00:01:53;15.30;;;9.30;;
3922;SDS011;1976;51.694;6.256;2023-04-19T00:04:19;13.10;;;9.87;;
3922;SDS011;1976;51.694;6.256;2023-04-19T00:06:45;15.37;;;11.13;;
3922;SDS011;1976;51.694;6.256;2023-04-19T00:09:11;16.27;;;11.00;;
3922;SDS011;1976;51.694;6.256;2023-04-19T00:11:37;17.30;;;9.90;;
3922;SDS011;1976;51.694;6.256;2023-04-19T00:14:04;14.20;;;10.03;;
3922;SDS011;1976;51.694;6.256;2023-04-19T00:16:30;18.23;;;10.03;;
3922;SDS011;1976;51.694;6.256;2023-04-19T00:18:56;13.77;;;10.17;;
3922;SDS011;1976;51.694;6.256;2023-04-19T00:21:22;21.90;;;11.10;;
3922;SDS011;1976;51.694;6.256;2023-04-19T00:23:47;13.27;;;9.30;;
3922;SDS011;1976;51.694;6.256;2023-04-19T00:26:14;20.03;;;10.30;;
3922;SDS011;1976;51.694;6.256;2023-04-19T00:28:40;17.00;;;10.30;;
3922;SDS011;1976;51.694;6.256;2023-04-19T00:31:06;15.80;;;10.43;;
3922;SDS011;1976;51.694;6.256;2023-04-19T00:33:32;13.03;;;9.67;;
3922;SDS011;1976;51.694;6.256;2023-04-19T00:35:58;13.70;;;9.30;;
3922;SDS011;1976;51.694;6.256;2023-04-19T00:38:24;17.43;;;9.83;;
3922;SDS011;1976;51.694;6.256;2023-04-19T00:40:50;33.83;;;10.93;;
3922;SDS011;1976;51.694;6.256;2023-04-19T00:43:19;12.33;;;8.40;;
3922;SDS011;1976;51.694;6.256;2023-04-19T00:45:45;13.67;;;8.90;;
3922;SDS011;1976;51.694;6.256;2023-04-19T00:48:12;13.30;;;9.40;;
3922;SDS011;1976;51.694;6.256;2023-04-19T00:50:38;13.10;;;9.53;;
3922;SDS011;1976;51.694;6.256;2023-04-19T00:53:04;14.37;;;10.20;;
3922;SDS011;1976;51.694;6.256;2023-04-19T00:55:31;19.77;;;10.70;;
3922;SDS011;1976;51.694;6.256;2023-04-19T00:57:57;15.13;;;10.40;;
3922;SDS011;1976;51.694;6.256;2023-04-19T01:00:24;14.43;;;10.23;;
3922;SDS011;1976;51.694;6.256;2023-04-19T01:02:50;13.33;;;8.93;;
3922;SDS011;1976;51.694;6.256;2023-04-19T01:05:16;15.20;;;9.40;;
3922;SDS011;1976;51.694;6.256;2023-04-19T01:07:42;14.37;;;10.07;;
3922;SDS011;1976;51.694;6.256;2023-04-19T01:10:08;11.13;;;8.10;;
3922;SDS011;1976;51.694;6.256;2023-04-19T01:12:35;15.50;;;10.43;;
3922;SDS011;1976;51.694;6.256;2023-04-19T01:15:01;12.90;;;9.10;;
3922;SDS011;1976;51.694;6.256;2023-04-19T01:17:27;14.33;;;10.33;;
3922;SDS011;1976;51.694;6.256;2023-04-19T01:20:02;11.70;;;8.80;;
3922;SDS011;1976;51.694;6.256;2023-04-19T01:22:28;17.20;;;10.17;;
3922;SDS011;1976;51.694;6.256;2023-04-19T01:24:54;14.27;;;8.70;;
3922;SDS011;1976;51.694;6.256;2023-04-19T01:27:21;14.80;;;9.53;;
3922;SDS011;1976;51.694;6.256;2023-04-19T01:29:48;16.43;;;9.60;;
3922;SDS011;1976;51.694;6.256;2023-04-19T01:32:14;19.93;;;9.90;;
3922;SDS011;1976;51.694;6.256;2023-04-19T01:34:41;16.73;;;10.23;;
3922;SDS011;1976;51.694;6.256;2023-04-19T01:37:07;14.93;;;9.40;;
3922;SDS011;1976;51.694;6.256;2023-04-19T01:39:33;12.77;;;10.10;;
3922;SDS011;1976;51.694;6.256;2023-04-19T01:41:59;12.50;;;9.30;;
3922;SDS011;1976;51.694;6.256;2023-04-19T01:44:26;16.23;;;10.13;;
3922;SDS011;1976;51.694;6.256;2023-04-19T01:46:53;15.67;;;9.90;;
3922;SDS011;1976;51.694;6.256;2023-04-19T01:49:19;11.90;;;8.13;;
3922;SDS011;1976;51.694;6.256;2023-04-19T01:51:45;13.30;;;9.43;;
3922;SDS011;1976;51.694;6.256;2023-04-19T01:54:10;11.83;;;8.70;;
3922;SDS011;1976;51.694;6.256;2023-04-19T01:56:36;12.20;;;9.20;;
3922;SDS011;1976;51.694;6.256;2023-04-19T01:59:02;24.63;;;9.83;;
3922;SDS011;1976;51.694;6.256;2023-04-19T02:01:28;14.47;;;9.73;;
3922;SDS011;1976;51.694;6.256;2023-04-19T02:03:54;15.20;;;9.40;;
3922;SDS011;1976;51.694;6.256;2023-04-19T02:06:20;12.03;;;8.43;;
3922;SDS011;1976;51.694;6.256;2023-04-19T02:08:46;11.90;;;8.83;;
3922;SDS011;1976;51.694;6.256;2023-04-19T02:11:12;12.03;;;8.50;;
3922;SDS011;1976;51.694;6.256;2023-04-19T02:13:38;12.47;;;9.33;;
3922;SDS011;1976;51.694;6.256;2023-04-19T02:16:05;15.43;;;10.20;;
3922;SDS011;1976;51.694;6.256;2023-04-19T02:18:31;19.87;;;9.40;;
3922;SDS011;1976;51.694;6.256;2023-04-19T02:21:03;14.20;;;9.07;;
3922;SDS011;1976;51.694;6.256;2023-04-19T02:23:29;16.17;;;8.37;;
3922;SDS011;1976;51.694;6.256;2023-04-19T02:25:55;12.27;;;9.17;;
3922;SDS011;1976;51.694;6.256;2023-04-19T02:28:21;14.67;;;8.73;;
3922;SDS011;1976;51.694;6.256;2023-04-19T02:30:47;14.77;;;8.63;;
3922;SDS011;1976;51.694;6.256;2023-04-19T02:33:13;10.90;;;7.93;;
3922;SDS011;1976;51.694;6.256;2023-04-19T02:35:40;14.27;;;8.83;;
3922;SDS011;1976;51.694;6.256;2023-04-19T02:38:06;14.33;;;9.07;;
3922;SDS011;1976;51.694;6.256;2023-04-19T02:40:32;12.33;;;9.10;;
3922;SDS011;1976;51.694;6.256;2023-04-19T02:42:57;17.87;;;9.77;;
3922;SDS011;1976;51.694;6.256;2023-04-19T02:45:23;15.97;;;8.40;;
3922;SDS011;1976;51.694;6.256;2023-04-19T02:47:49;16.20;;;8.70;;
3922;SDS011;1976;51.694;6.256;2023-04-19T02:50:15;16.47;;;9.10;;
3922;SDS011;1976;51.694;6.256;2023-04-19T02:52:41;11.47;;;8.47;;
3922;SDS011;1976;51.694;6.256;2023-04-19T02:55:07;16.73;;;8.40;;
3922;SDS011;1976;51.694;6.256;2023-04-19T02:57:33;12.53;;;9.27;;
3922;SDS011;1976;51.694;6.256;2023-04-19T02:59:59;13.73;;;8.33;;
3922;SDS011;1976;51.694;6.256;2023-04-19T03:02:25;10.80;;;8.30;;
3922;SDS011;1976;51.694;6.256;2023-04-19T03:04:51;11.53;;;7.83;;
3922;SDS011;1976;51.694;6.256;2023-04-19T03:07:18;17.57;;;7.80;;
3922;SDS011;1976;51.694;6.256;2023-04-19T03:09:44;10.27;;;6.90;;
3922;SDS011;1976;51.694;6.256;2023-04-19T03:12:10;11.53;;;6.47;;
3922;SDS011;1976;51.694;6.256;2023-04-19T03:14:35;9.97;;;5.53;;
3922;SDS011;1976;51.694;6.256;2023-04-19T03:17:02;8.40;;;6.23;;
3922;SDS011;1976;51.694;6.256;2023-04-19T03:19:27;7.97;;;6.23;;
3922;SDS011;1976;51.694;6.256;2023-04-19T03:21:53;6.87;;;5.97;;
3922;SDS011;1976;51.694;6.256;2023-04-19T03:24:25;7.57;;;5.37;;
3922;SDS011;1976;51.694;6.256;2023-04-19T03:26:53;8.47;;;5.37;;
3922;SDS011;1976;51.694;6.256;2023-04-19T03:29:19;10.03;;;5.90;;
3922;SDS011;1976;51.694;6.256;2023-04-19T03:31:45;29.57;;;7.10;;
3922;SDS011;1976;51.694;6.256;2023-04-19T03:34:11;8.53;;;5.10;;
3922;SDS011;1976;51.694;6.256;2023-04-19T03:36:37;9.43;;;6.00;;
3922;SDS011;1976;51.694;6.256;2023-04-19T03:39:03;8.57;;;5.47;;
3922;SDS011;1976;51.694;6.256;2023-04-19T03:41:30;8.57;;;5.33;;
3922;SDS011;1976;51.694;6.256;2023-04-19T03:43:56;7.63;;;5.10;;
3922;SDS011;1976;51.694;6.256;2023-04-19T03:46:22;10.50;;;5.93;;
3922;SDS011;1976;51.694;6.256;2023-04-19T03:48:48;8.90;;;5.07;;
3922;SDS011;1976;51.694;6.256;2023-04-19T03:51:15;7.73;;;5.50;;
3922;SDS011;1976;51.694;6.256;2023-04-19T03:53:41;9.17;;;5.30;;
3922;SDS011;1976;51.694;6.256;2023-04-19T03:56:07;7.20;;;4.87;;
3922;SDS011;1976;51.694;6.256;2023-04-19T03:58:32;6.97;;;5.30;;
3922;SDS011;1976;51.694;6.256;2023-04-19T04:00:58;11.30;;;5.47;;
3922;SDS011;1976;51.694;6.256;2023-04-19T04:03:25;10.30;;;5.43;;
3922;SDS011;1976;51.694;6.256;2023-04-19T04:05:51;8.07;;;6.03;;
3922;SDS011;1976;51.694;6.256;2023-04-19T04:08:17;10.40;;;5.17;;
3922;SDS011;1976;51.694;6.256;2023-04-19T04:10:43;6.10;;;5.10;;
3922;SDS011;1976;51.694;6.256;2023-04-19T04:13:09;6.87;;;5.27;;
3922;SDS011;1976;51.694;6.256;2023-04-19T04:15:34;7.20;;;5.20;;
3922;SDS011;1976;51.694;6.256;2023-04-19T04:18:00;6.60;;;4.90;;
3922;SDS011;1976;51.694;6.256;2023-04-19T04:20:26;8.77;;;4.67;;
3922;SDS011;1976;51.694;6.256;2023-04-19T04:22:52;7.23;;;4.97;;
3922;SDS011;1976;51.694;6.256;2023-04-19T04:25:18;6.97;;;4.83;;
3922;SDS011;1976;51.694;6.256;2023-04-19T04:27:45;9.80;;;5.30;;
3922;SDS011;1976;51.694;6.256;2023-04-19T04:30:11;12.60;;;5.90;;
3922;SDS011;1976;51.694;6.256;2023-04-19T04:32:37;7.57;;;4.93;;
3922;SDS011;1976;51.694;6.256;2023-04-19T04:35:05;7.23;;;5.30;;
3922;SDS011;1976;51.694;6.256;2023-04-19T04:37:31;6.83;;;5.47;;
3922;SDS011;1976;51.694;6.256;2023-04-19T04:40:00;10.47;;;5.47;;
3922;SDS011;1976;51.694;6.256;2023-04-19T04:42:29;7.37;;;5.77;;
3922;SDS011;1976;51.694;6.256;2023-04-19T04:44:55;7.33;;;5.10;;
3922;SDS011;1976;51.694;6.256;2023-04-19T04:47:22;5.97;;;4.50;;
3922;SDS011;1976;51.694;6.256;2023-04-19T04:49:48;5.43;;;4.70;;
3922;SDS011;1976;51.694;6.256;2023-04-19T04:52:14;10.67;;;6.40;;
3922;SDS011;1976;51.694;6.256;2023-04-19T04:54:42;6.00;;;5.30;;
3922;SDS011;1976;51.694;6.256;2023-04-19T04:57:08;8.73;;;5.63;;
3922;SDS011;1976;51.694;6.256;2023-04-19T04:59:34;8.47;;;5.30;;
3922;SDS011;1976;51.694;6.256;2023-04-19T05:01:59;6.97;;;5.40;;
3922;SDS011;1976;51.694;6.256;2023-04-19T05:04:25;13.20;;;5.87;;
3922;SDS011;1976;51.694;6.256;2023-04-19T05:06:51;9.30;;;5.40;;
3922;SDS011;1976;51.694;6.256;2023-04-19T05:09:17;10.30;;;5.50;;
3922;SDS011;1976;51.694;6.256;2023-04-19T05:11:43;9.17;;;6.00;;
3922;SDS011;1976;51.694;6.256;2023-04-19T05:14:09;9.33;;;7.07;;
3922;SDS011;1976;51.694;6.256;2023-04-19T05:16:36;9.23;;;5.17;;
3922;SDS011;1976;51.694;6.256;2023-04-19T05:19:02;9.90;;;5.60;;
3922;SDS011;1976;51.694;6.256;2023-04-19T05:21:28;7.90;;;6.30;;
3922;SDS011;1976;51.694;6.256;2023-04-19T05:23:54;9.00;;;5.80;;
3922;SDS011;1976;51.694;6.256;2023-04-19T05:26:20;7.80;;;5.47;;
3922;SDS011;1976;51.694;6.256;2023-04-19T05:28:46;16.00;;;5.17;;
3922;SDS011;1976;51.694;6.256;2023-04-19T05:31:12;8.03;;;5.50;;
3922;SDS011;1976;51.694;6.256;2023-04-19T05:33:38;7.97;;;5.57;;
3922;SDS011;1976;51.694;6.256;2023-04-19T05:36:04;7.67;;;5.50;;
3922;SDS011;1976;51.694;6.256;2023-04-19T05:38:30;8.13;;;5.70;;
3922;SDS011;1976;51.694;6.256;2023-04-19T05:40:56;14.77;;;5.23;;
3922;SDS011;1976;51.694;6.256;2023-04-19T05:43:22;8.80;;;4.70;;
3922;SDS011;1976;51.694;6.256;2023-04-19T05:45:48;6.40;;;4.60;;
3922;SDS011;1976;51.694;6.256;2023-04-19T05:48:14;7.53;;;6.30;;
3922;SDS011;1976;51.694;6.256;2023-04-19T05:50:40;8.33;;;5.27;;
3922;SDS011;1976;51.694;6.256;2023-04-19T05:53:06;10.83;;;4.73;;
3922;SDS011;1976;51.694;6.256;2023-04-19T05:55:32;9.63;;;5.13;;
3922;SDS011;1976;51.694;6.256;2023-04-19T05:57:58;14.83;;;6.33;;
3922;SDS011;1976;51.694;6.256;2023-04-19T06:00:24;7.27;;;4.90;;
3922;SDS011;1976;51.694;6.256;2023-04-19T06:02:52;10.47;;;5.13;;
3922;SDS011;1976;51.694;6.256;2023-04-19T06:05:18;7.30;;;5.13;;
3922;SDS011;1976;51.694;6.256;2023-04-19T06:07:44;11.70;;;5.07;;
3922;SDS011;1976;51.694;6.256;2023-04-19T06:10:10;10.43;;;5.00;;
3922;SDS011;1976;51.694;6.256;2023-04-19T06:12:35;6.80;;;5.10;;
3922;SDS011;1976;51.694;6.256;2023-04-19T06:15:01;5.97;;;4.87;;
3922;SDS011;1976;51.694;6.256;2023-04-19T06:17:27;8.67;;;5.47;;
3922;SDS011;1976;51.694;6.256;2023-04-19T06:19:53;11.37;;;5.27;;
3922;SDS011;1976;51.694;6.256;2023-04-19T06:22:19;6.93;;;4.53;;
3922;SDS011;1976;51.694;6.256;2023-04-19T06:24:46;16.47;;;4.60;;
3922;SDS011;1976;51.694;6.256;2023-04-19T06:27:12;7.70;;;4.50;;
3922;SDS011;1976;51.694;6.256;2023-04-19T06:29:38;10.50;;;4.10;;
3922;SDS011;1976;51.694;6.256;2023-04-19T06:32:03;6.60;;;4.63;;
3922;SDS011;1976;51.694;6.256;2023-04-19T06:34:29;8.27;;;4.70;;
3922;SDS011;1976;51.694;6.256;2023-04-19T06:36:55;5.00;;;4.40;;
3922;SDS011;1976;51.694;6.256;2023-04-19T06:39:21;5.80;;;4.20;;
3922;SDS011;1976;51.694;6.256;2023-04-19T06:41:47;8.43;;;4.20;;
3922;SDS011;1976;51.694;6.256;2023-04-19T06:44:13;7.13;;;4.33;;
3922;SDS011;1976;51.694;6.256;2023-04-19T06:46:39;7.43;;;4.40;;
3922;SDS011;1976;51.694;6.256;2023-04-19T06:49:05;5.90;;;4.00;;
3922;SDS011;1976;51.694;6.256;2023-04-19T06:51:31;14.10;;;5.27;;
3922;SDS011;1976;51.694;6.256;2023-04-19T06:53:57;46.83;;;6.83;;
3922;SDS011;1976;51.694;6.256;2023-04-19T06:56:39;11.40;;;4.10;;
3922;SDS011;1976;51.694;6.256;2023-04-19T06:59:06;5.83;;;4.43;;
3922;SDS011;1976;51.694;6.256;2023-04-19T07:01:32;5.03;;;3.77;;
3922;SDS011;1976;51.694;6.256;2023-04-19T07:03:58;10.23;;;4.03;;
3922;SDS011;1976;51.694;6.256;2023-04-19T07:06:25;6.30;;;3.60;;
3922;SDS011;1976;51.694;6.256;2023-04-19T07:08:51;5.30;;;4.00;;
3922;SDS011;1976;51.694;6.256;2023-04-19T07:11:17;6.87;;;3.30;;
3922;SDS011;1976;51.694;6.256;2023-04-19T07:13:43;6.00;;;3.20;;
3922;SDS011;1976;51.694;6.256;2023-04-19T07:16:09;5.37;;;3.03;;
3922;SDS011;1976;51.694;6.256;2023-04-19T07:18:35;6.20;;;4.07;;
3922;SDS011;1976;51.694;6.256;2023-04-19T07:21:01;4.70;;;3.80;;
3922;SDS011;1976;51.694;6.256;2023-04-19T07:23:27;6.10;;;3.87;;
3922;SDS011;1976;51.694;6.256;2023-04-19T07:25:52;5.07;;;3.30;;
3922;SDS011;1976;51.694;6.256;2023-04-19T07:28:18;9.37;;;4.30;;
3922;SDS011;1976;51.694;6.256;2023-04-19T07:30:44;4.90;;;3.40;;
3922;SDS011;1976;51.694;6.256;2023-04-19T07:33:10;5.70;;;3.40;;
3922;SDS011;1976;51.694;6.256;2023-04-19T07:35:39;4.10;;;2.93;;
3922;SDS011;1976;51.694;6.256;2023-04-19T07:38:05;5.03;;;3.00;;
3922;SDS011;1976;51.694;6.256;2023-04-19T07:40:31;5.00;;;3.50;;
3922;SDS011;1976;51.694;6.256;2023-04-19T07:42:57;7.47;;;3.27;;
3922;SDS011;1976;51.694;6.256;2023-04-19T07:45:23;5.03;;;3.03;;
3922;SDS011;1976;51.694;6.256;2023-04-19T07:47:48;11.73;;;3.57;;
3922;SDS011;1976;51.694;6.256;2023-04-19T07:50:14;8.10;;;3.40;;
3922;SDS011;1976;51.694;6.256;2023-04-19T07:52:40;4.90;;;3.37;;
3922;SDS011;1976;51.694;6.256;2023-04-19T07:55:06;6.70;;;3.60;;
3922;SDS011;1976;51.694;6.256;2023-04-19T07:57:33;4.03;;;3.10;;
3922;SDS011;1976;51.694;6.256;2023-04-19T07:59:59;3.30;;;2.90;;
3922;SDS011;1976;51.694;6.256;2023-04-19T08:02:26;6.30;;;2.90;;
3922;SDS011;1976;51.694;6.256;2023-04-19T08:04:52;3.83;;;2.60;;
3922;SDS011;1976;51.694;6.256;2023-04-19T08:07:18;4.80;;;2.87;;
3922;SDS011;1976;51.694;6.256;2023-04-19T08:09:46;6.00;;;2.83;;
3922;SDS011;1976;51.694;6.256;2023-04-19T08:12:11;3.43;;;2.93;;
3922;SDS011;1976;51.694;6.256;2023-04-19T08:14:37;3.37;;;2.67;;
3922;SDS011;1976;51.694;6.256;2023-04-19T08:17:04;11.97;;;3.13;;
3922;SDS011;1976;51.694;6.256;2023-04-19T08:19:30;3.30;;;2.70;;
3922;SDS011;1976;51.694;6.256;2023-04-19T08:21:55;18.43;;;3.90;;
3922;SDS011;1976;51.694;6.256;2023-04-19T08:24:21;5.07;;;2.30;;
3922;SDS011;1976;51.694;6.256;2023-04-19T08:26:47;3.93;;;2.80;;
3922;SDS011;1976;51.694;6.256;2023-04-19T08:29:20;5.87;;;2.90;;
3922;SDS011;1976;51.694;6.256;2023-04-19T08:31:47;3.60;;;2.57;;
3922;SDS011;1976;51.694;6.256;2023-04-19T08:34:13;3.40;;;3.00;;
3922;SDS011;1976;51.694;6.256;2023-04-19T08:36:38;11.17;;;3.47;;
3922;SDS011;1976;51.694;6.256;2023-04-19T08:39:05;4.90;;;3.70;;
3922;SDS011;1976;51.694;6.256;2023-04-19T08:41:30;10.47;;;2.93;;
3922;SDS011;1976;51.694;6.256;2023-04-19T08:43:56;4.17;;;2.90;;
3922;SDS011;1976;51.694;6.256;2023-04-19T08:46:23;4.30;;;2.67;;
3922;SDS011;1976;51.694;6.256;2023-04-19T08:48:52;4.53;;;3.20;;
3922;SDS011;1976;51.694;6.256;2023-04-19T08:51:18;3.13;;;2.57;;
3922;SDS011;1976;51.694;6.256;2023-04-19T08:53:45;4.80;;;2.80;;
3922;SDS011;1976;51.694;6.256;2023-04-19T08:56:12;2.63;;;2.43;;
3922;SDS011;1976;51.694;6.256;2023-04-19T08:58:38;10.17;;;2.53;;
3922;SDS011;1976;51.694;6.256;2023-04-19T09:01:04;4.90;;;2.57;;
3922;SDS011;1976;51.694;6.256;2023-04-19T09:03:30;6.20;;;2.13;;
3922;SDS011;1976;51.694;6.256;2023-04-19T09:05:56;4.80;;;1.97;;
3922;SDS011;1976;51.694;6.256;2023-04-19T09:08:23;9.97;;;3.20;;
3922;SDS011;1976;51.694;6.256;2023-04-19T09:10:57;2.33;;;2.13;;
3922;SDS011;1976;51.694;6.256;2023-04-19T09:13:24;4.43;;;1.90;;
3922;SDS011;1976;51.694;6.256;2023-04-19T09:15:51;4.33;;;2.20;;
3922;SDS011;1976;51.694;6.256;2023-04-19T09:18:18;4.47;;;2.10;;
3922;SDS011;1976;51.694;6.256;2023-04-19T09:20:44;2.30;;;1.90;;
3922;SDS011;1976;51.694;6.256;2023-04-19T09:23:11;3.93;;;2.20;;
3922;SDS011;1976;51.694;6.256;2023-04-19T09:25:54;1.80;;;1.70;;
3922;SDS011;1976;51.694;6.256;2023-04-19T09:28:28;1.90;;;1.50;;
3922;SDS011;1976;51.694;6.256;2023-04-19T09:30:55;4.90;;;1.60;;
3922;SDS011;1976;51.694;6.256;2023-04-19T09:33:34;4.93;;;1.63;;
3922;SDS011;1976;51.694;6.256;2023-04-19T09:36:03;2.20;;;1.27;;
3922;SDS011;1976;51.694;6.256;2023-04-19T09:38:29;4.37;;;1.30;;
3922;SDS011;1976;51.694;6.256;2023-04-19T09:41:04;3.83;;;1.63;;
3922;SDS011;1976;51.694;6.256;2023-04-19T09:43:31;5.53;;;1.40;;
3922;SDS011;1976;51.694;6.256;2023-04-19T09:45:57;2.53;;;1.27;;
3922;SDS011;1976;51.694;6.256;2023-04-19T09:48:23;1.90;;;1.80;;
3922;SDS011;1976;51.694;6.256;2023-04-19T09:50:49;1.77;;;1.20;;
3922;SDS011;1976;51.694;6.256;2023-04-19T09:53:16;4.57;;;1.80;;
3922;SDS011;1976;51.694;6.256;2023-04-19T09:55:44;1.50;;;1.40;;
3922;SDS011;1976;51.694;6.256;2023-04-19T09:58:11;1.90;;;1.67;;
3922;SDS011;1976;51.694;6.256;2023-04-19T10:00:38;9.63;;;1.73;;
3922;SDS011;1976;51.694;6.256;2023-04-19T10:03:04;14.80;;;2.93;;
3922;SDS011;1976;51.694;6.256;2023-04-19T10:05:31;2.00;;;1.90;;
3922;SDS011;1976;51.694;6.256;2023-04-19T10:07:57;2.50;;;1.77;;
3922;SDS011;1976;51.694;6.256;2023-04-19T10:10:26;10.90;;;1.93;;
3922;SDS011;1976;51.694;6.256;2023-04-19T10:12:54;7.37;;;2.03;;
3922;SDS011;1976;51.694;6.256;2023-04-19T10:15:22;2.17;;;1.57;;
3922;SDS011;1976;51.694;6.256;2023-04-19T10:17:48;1.30;;;1.20;;
3922;SDS011;1976;51.694;6.256;2023-04-19T10:20:36;1.57;;;1.47;;
3922;SDS011;1976;51.694;6.256;2023-04-19T10:23:00;1.90;;;1.77;;
3922;SDS011;1976;51.694;6.256;2023-04-19T10:25:28;11.00;;;1.80;;
3922;SDS011;1976;51.694;6.256;2023-04-19T10:27:54;1.77;;;1.67;;
3922;SDS011;1976;51.694;6.256;2023-04-19T10:30:21;3.47;;;1.77;;
3922;SDS011;1976;51.694;6.256;2023-04-19T10:32:52;2.13;;;1.50;;
3922;SDS011;1976;51.694;6.256;2023-04-19T10:35:24;12.30;;;1.97;;
3922;SDS011;1976;51.694;6.256;2023-04-19T10:38:09;4.27;;;1.80;;
3922;SDS011;1976;51.694;6.256;2023-04-19T10:40:55;3.87;;;1.80;;
3922;SDS011;1976;51.694;6.256;2023-04-19T10:43:24;2.87;;;1.93;;
3922;SDS011;1976;51.694;6.256;2023-04-19T10:45:54;3.43;;;1.43;;
3922;SDS011;1976;51.694;6.256;2023-04-19T10:48:53;2.00;;;1.80;;
3922;SDS011;1976;51.694;6.256;2023-04-19T10:51:25;9.13;;;2.23;;
3922;SDS011;1976;51.694;6.256;2023-04-19T10:53:52;7.70;;;1.90;;
3922;SDS011;1976;51.694;6.256;2023-04-19T10:56:20;2.40;;;2.20;;
3922;SDS011;1976;51.694;6.256;2023-04-19T11:04:05;3.10;;;1.73;;
3922;SDS011;1976;51.694;6.256;2023-04-19T11:06:31;2.30;;;1.73;;
3922;SDS011;1976;51.694;6.256;2023-04-19T11:08:58;2.50;;;1.53;;
3922;SDS011;1976;51.694;6.256;2023-04-19T11:11:25;3.47;;;2.00;;
3922;SDS011;1976;51.694;6.256;2023-04-19T11:13:50;5.33;;;1.70;;
3922;SDS011;1976;51.694;6.256;2023-04-19T11:16:18;2.50;;;1.60;;
3922;SDS011;1976;51.694;6.256;2023-04-19T11:18:44;2.47;;;2.27;;
3922;SDS011;1976;51.694;6.256;2023-04-19T11:21:13;4.30;;;1.80;;
3922;SDS011;1976;51.694;6.256;2023-04-19T11:23:40;2.57;;;1.70;;
3922;SDS011;1976;51.694;6.256;2023-04-19T11:26:09;5.73;;;2.00;;
3922;SDS011;1976;51.694;6.256;2023-04-19T11:28:35;8.07;;;2.30;;
3922;SDS011;1976;51.694;6.256;2023-04-19T11:31:02;14.00;;;3.30;;
3922;SDS011;1976;51.694;6.256;2023-04-19T11:33:32;2.70;;;2.00;;
3922;SDS011;1976;51.694;6.256;2023-04-19T11:36:01;2.50;;;2.10;;
3922;SDS011;1976;51.694;6.256;2023-04-19T11:38:27;6.23;;;2.10;;
3922;SDS011;1976;51.694;6.256;2023-04-19T11:40:57;15.83;;;2.47;;
3922;SDS011;1976;51.694;6.256;2023-04-19T11:43:24;6.60;;;2.17;;
3922;SDS011;1976;51.694;6.256;2023-04-19T11:45:56;2.77;;;1.90;;
3922;SDS011;1976;51.694;6.256;2023-04-19T11:48:29;6.63;;;2.13;;
3922;SDS011;1976;51.694;6.256;2023-04-19T11:50:56;4.53;;;1.70;;
3922;SDS011;1976;51.694;6.256;2023-04-19T11:53:23;17.67;;;1.93;;
3922;SDS011;1976;51.694;6.256;2023-04-19T11:55:54;2.70;;;2.10;;
3922;SDS011;1976;51.694;6.256;2023-04-19T12:01:09;2.80;;;1.80;;
3922;SDS011;1976;51.694;6.256;2023-04-19T12:03:39;3.27;;;1.83;;
3922;SDS011;1976;51.694;6.256;2023-04-19T12:06:12;2.13;;;1.90;;
3922;SDS011;1976;51.694;6.256;2023-04-19T12:08:45;2.60;;;2.20;;
3922;SDS011;1976;51.694;6.256;2023-04-19T12:11:12;2.10;;;1.90;;
3922;SDS011;1976;51.694;6.256;2023-04-19T12:13:38;3.63;;;2.00;;
3922;SDS011;1976;51.694;6.256;2023-04-19T12:16:05;2.00;;;1.80;;
3922;SDS011;1976;51.694;6.256;2023-04-19T12:18:48;3.30;;;1.93;;
3922;SDS011;1976;51.694;6.256;2023-04-19T12:21:24;5.97;;;2.63;;
3922;SDS011;1976;51.694;6.256;2023-04-19T12:23:56;6.53;;;1.63;;
3922;SDS011;1976;51.694;6.256;2023-04-19T12:26:23;5.50;;;1.83;;
3922;SDS011;1976;51.694;6.256;2023-04-19T12:28:49;5.73;;;1.97;;
3922;SDS011;1976;51.694;6.256;2023-04-19T12:31:15;11.27;;;2.30;;
3922;SDS011;1976;51.694;6.256;2023-04-19T12:33:41;4.83;;;2.30;;
3922;SDS011;1976;51.694;6.256;2023-04-19T12:36:07;8.83;;;2.27;;
3922;SDS011;1976;51.694;6.256;2023-04-19T12:38:33;3.77;;;1.93;;
3922;SDS011;1976;51.694;6.256;2023-04-19T12:40:59;2.60;;;1.87;;
3922;SDS011;1976;51.694;6.256;2023-04-19T12:43:25;3.30;;;2.30;;
3922;SDS011;1976;51.694;6.256;2023-04-19T12:45:51;5.93;;;1.87;;
3922;SDS011;1976;51.694;6.256;2023-04-19T12:48:17;3.27;;;2.20;;
3922;SDS011;1976;51.694;6.256;2023-04-19T12:50:42;2.23;;;1.83;;
3922;SDS011;1976;51.694;6.256;2023-04-19T12:53:09;6.50;;;2.13;;
3922;SDS011;1976;51.694;6.256;2023-04-19T12:55:35;2.30;;;1.67;;
3922;SDS011;1976;51.694;6.256;2023-04-19T12:58:01;4.57;;;2.77;;
3922;SDS011;1976;51.694;6.256;2023-04-19T13:00:27;3.77;;;1.90;;
3922;SDS011;1976;51.694;6.256;2023-04-19T13:02:54;2.90;;;2.03;;
3922;SDS011;1976;51.694;6.256;2023-04-19T13:05:20;2.00;;;1.87;;
3922;SDS011;1976;51.694;6.256;2023-04-19T13:07:46;4.67;;;2.20;;
3922;SDS011;1976;51.694;6.256;2023-04-19T13:10:12;6.60;;;2.23;;
3922;SDS011;1976;51.694;6.256;2023-04-19T13:12:38;3.50;;;2.40;;
3922;SDS011;1976;51.694;6.256;2023-04-19T13:15:04;2.10;;;2.00;;
3922;SDS011;1976;51.694;6.256;2023-04-19T13:17:30;5.23;;;2.23;;
3922;SDS011;1976;51.694;6.256;2023-04-19T13:19:56;3.37;;;2.20;;
3922;SDS011;1976;51.694;6.256;2023-04-19T13:22:22;8.10;;;2.30;;
3922;SDS011;1976;51.694;6.256;2023-04-19T13:24:48;2.67;;;2.47;;
3922;SDS011;1976;51.694;6.256;2023-04-19T13:27:14;2.60;;;2.00;;
3922;SDS011;1976;51.694;6.256;2023-04-19T13:29:41;2.83;;;2.63;;
3922;SDS011;1976;51.694;6.256;2023-04-19T13:32:07;4.53;;;3.73;;
3922;SDS011;1976;51.694;6.256;2023-04-19T13:34:36;6.30;;;2.10;;
3922;SDS011;1976;51.694;6.256;2023-04-19T13:37:02;2.80;;;2.60;;
3922;SDS011;1976;51.694;6.256;2023-04-19T13:39:27;5.77;;;2.70;;
3922;SDS011;1976;51.694;6.256;2023-04-19T13:41:53;2.30;;;2.10;;
3922;SDS011;1976;51.694;6.256;2023-04-19T13:44:19;2.93;;;2.23;;
3922;SDS011;1976;51.694;6.256;2023-04-19T13:46:45;2.47;;;2.23;;
3922;SDS011;1976;51.694;6.256;2023-04-19T13:49:11;4.10;;;2.63;;
3922;SDS011;1976;51.694;6.256;2023-04-19T13:51:37;2.43;;;2.23;;
3922;SDS011;1976;51.694;6.256;2023-04-19T13:54:03;3.90;;;2.90;;
3922;SDS011;1976;51.694;6.256;2023-04-19T13:56:29;11.73;;;2.67;;
3922;SDS011;1976;51.694;6.256;2023-04-19T13:58:55;11.50;;;2.30;;
3922;SDS011;1976;51.694;6.256;2023-04-19T14:01:21;2.97;;;2.10;;
3922;SDS011;1976;51.694;6.256;2023-04-19T14:03:47;19.87;;;4.07;;
3922;SDS011;1976;51.694;6.256;2023-04-19T14:06:13;2.63;;;2.37;;
3922;SDS011;1976;51.694;6.256;2023-04-19T14:08:40;8.37;;;2.90;;
3922;SDS011;1976;51.694;6.256;2023-04-19T14:11:08;2.93;;;2.60;;
3922;SDS011;1976;51.694;6.256;2023-04-19T14:13:34;10.87;;;2.47;;
3922;SDS011;1976;51.694;6.256;2023-04-19T14:16:00;14.53;;;3.33;;
3922;SDS011;1976;51.694;6.256;2023-04-19T14:18:26;3.27;;;2.70;;
3922;SDS011;1976;51.694;6.256;2023-04-19T14:20:52;2.93;;;2.53;;
3922;SDS011;1976;51.694;6.256;2023-04-19T14:23:18;4.07;;;2.47;;
3922;SDS011;1976;51.694;6.256;2023-04-19T14:25:44;14.90;;;4.27;;
3922;SDS011;1976;51.694;6.256;2023-04-19T14:28:10;2.90;;;2.57;;
3922;SDS011;1976;51.694;6.256;2023-04-19T14:30:37;4.80;;;2.40;;
3922;SDS011;1976;51.694;6.256;2023-04-19T14:33:03;5.83;;;2.67;;
3922;SDS011;1976;51.694;6.256;2023-04-19T14:35:29;3.63;;;2.73;;
3922;SDS011;1976;51.694;6.256;2023-04-19T14:37:55;11.43;;;3.10;;
3922;SDS011;1976;51.694;6.256;2023-04-19T14:40:21;3.53;;;2.40;;
3922;SDS011;1976;51.694;6.256;2023-04-19T14:42:48;7.97;;;3.33;;
3922;SDS011;1976;51.694;6.256;2023-04-19T14:45:14;13.63;;;3.77;;
3922;SDS011;1976;51.694;6.256;2023-04-19T14:47:39;11.40;;;3.23;;
3922;SDS011;1976;51.694;6.256;2023-04-19T14:50:05;5.83;;;3.23;;
3922;SDS011;1976;51.694;6.256;2023-04-19T14:52:31;5.43;;;3.43;;
3922;SDS011;1976;51.694;6.256;2023-04-19T14:54:58;4.37;;;3.00;;
3922;SDS011;1976;51.694;6.256;2023-04-19T14:57:28;3.40;;;3.10;;
3922;SDS011;1976;51.694;6.256;2023-04-19T14:59:55;5.37;;;3.93;;
3922;SDS011;1976;51.694;6.256;2023-04-19T15:02:22;5.10;;;3.20;;
3922;SDS011;1976;51.694;6.256;2023-04-19T15:04:48;5.50;;;3.70;;
3922;SDS011;1976;51.694;6.256;2023-04-19T15:07:15;4.30;;;3.13;;
3922;SDS011;1976;51.694;6.256;2023-04-19T15:09:41;21.00;;;4.63;;
3922;SDS011;1976;51.694;6.256;2023-04-19T15:12:07;5.57;;;3.67;;
3922;SDS011;1976;51.694;6.256;2023-04-19T15:14:33;6.50;;;3.17;;
3922;SDS011;1976;51.694;6.256;2023-04-19T15:16:59;3.40;;;2.73;;